Long Point, Minnesota
Current Conditions -  °F | °C
As of 11:53 AM on Sunday 21 Dec 2014 (Local Time) from KBDE Reporting Station
Haze Haze  
Wind Chill: 22°   Ceiling: 600
Heat Index: 31°   Visibility: 6mi
Dew Point: 28°   Wind: 10mph
Humidity: 89%   Direction: 170°S
Pressure: 29.7"   Gusts: 18mph
Location:  48.7484°N, 94.9438°W
Report Text: KBDE 211753Z AUTO 17009G16KT 6SM BR OVC006 M01/M02 A2970 RMK AO2 SNE52 SLP075 P0000 60004 I6001 T10061022 11006 21017 58011 TSNO
Loading
Personal Weather Stations






























Interactive Weather Map New forecast layout! Learn more

10-Day Weather Forecast

Advertisements
Track Severe Weather on mobile